Tropical Cyclones
[Index]
Main Index Home Page Stock Weather Photos Extreme Storms Discussion Storm News and Storm Chasing Reports Tropical Cyclones / Hurricanes / Typhoons Weather Data and Links Wild Fires / Bushfires Weather Observation Techniques Weather Picture Catalogue Tornado Pictures and Reports Stock Video Footage and DVDs for sale
Season 2007-2008 Tropical Cyclone OPHELIA Track Map
Season 2007-2008 Summaries: [BoM-AU] [JTWC-AU] [JTWC-SIO] [JTWC-SPAC] [JTWC-SH]
<<- Previous TC | BoM 2007-2008 Season | Next TC ->>

click for intensity scale information  Lat/long Grid: Show Hide

 Date Labels: Show Hide

Bureau of Meteorology Tropical Cyclone Data

Name: OPHELIA
Number: 915 / 200708_15

28 Feb 2008 00:00 UTC to 07 Mar 2008 06:00 UTC

    date/time    lat    long    hPa   cat  kts
2008-02-28 00   15.0   129.0   1003         20          
2008-02-29 06   14.7   126.8   1003         20          
2008-02-29 12   14.9   125.8   1003         20          
2008-02-29 18   15.1   124.8   1002         25          
2008-03-01 00   15.4   124.0   1000         30          
2008-03-01 06   15.7   123.3   1000         30          
2008-03-01 12   15.8   122.7    998         35          
2008-03-01 18   16.0   122.2    992    1    45          
2008-03-02 00   16.2   121.4    998         50          
2008-03-02 06   16.5   120.6    985    2    55          
2008-03-02 12   16.5   120.0    985    2    55          
2008-03-02 18   16.5   119.1    985    2    55          
2008-03-03 00   16.5   118.4    989    1    50          
2008-03-03 06   16.5   117.3    988    1    50          
2008-03-03 12   16.7   116.3    988    1    50          
2008-03-03 18   16.9   115.3    988    1    50          
2008-03-04 00   17.2   114.3    988    1    50          
2008-03-04 06   17.5   113.4    988    1    50          
2008-03-04 12   18.0   112.6    988    1    50          
2008-03-04 18   18.5   111.9    987    1    50          
2008-03-05 00   19.3   111.2    987    1    50          
2008-03-05 06   20.1   110.4    987    1    50          
2008-03-05 12   20.8   109.8    988    1    50          
2008-03-05 18   21.6   109.4    993    1    45          
2008-03-06 00   22.4   109.3    995    1    40          
2008-03-06 06   23.4   109.2    996         40          
2008-03-06 12   24.0   109.3   1001         35          
2008-03-06 18   24.8   109.8   1001         30          
2008-03-07 00   25.3   110.6   1001         30          
2008-03-07 06   25.4   111.6   1004         25          
Winds are 10-min average.

Tropical cyclone tracks developed by Michael Bath using data from the Bureau of Meteorology and Google Maps.


[Australian Severe Weather index] [Copyright Notice] [Email Contacts] [Search This Site] [Privacy Policy]
Document: tropical_cyclone_ophelia.htm Updated: 29 June 2017